Time;durP1;ratioP1;P1;durP2;ratioP2;P2;SDS_P1;SDS_P2;PMS_P1;PMS_P2;Temp;Humidity;BMP_temperature;BMP_pressure;BME280_temperature;BME280_humidity;BME280_pressure;Samples;Min_cycle;Max_cycle;Signal;HPM_P1;HPM_P2
2024/03/31 00:00:26;;;;;;;46.70;22.47;;;;;;;11.23;89.13;99189.75;5050029;28;20218;-81
2024/03/31 00:02:53;;;;;;;51.37;22.53;;;;;;;11.22;89.26;99184.53;5060928;28;20223;-83
2024/03/31 00:05:20;;;;;;;46.03;22.77;;;;;;;11.19;89.25;99185.66;5052718;28;20790;-80
2024/03/31 00:07:46;;;;;;;50.97;22.83;;;;;;;11.18;89.53;99177.78;5044449;28;20680;-79
2024/03/31 00:10:12;;;;;;;49.60;22.57;;;;;;;11.17;89.81;99187.59;5050126;28;20215;-78
2024/03/31 00:12:42;;;;;;;46.67;22.13;;;;;;;11.18;89.72;99191.13;5058074;28;20289;-78
2024/03/31 00:15:08;;;;;;;48.63;22.73;;;;;;;11.17;90.25;99200.94;5071765;28;20224;-77
2024/03/31 00:17:34;;;;;;;52.00;22.47;;;;;;;11.18;89.79;99204.44;5072165;28;20296;-77
2024/03/31 00:20:02;;;;;;;60.93;23.80;;;;;;;11.18;89.92;99204.44;5072124;28;20641;-77
2024/03/31 00:22:28;;;;;;;48.93;23.27;;;;;;;11.17;90.15;99210.75;5062885;28;20260;-78
2024/03/31 00:24:55;;;;;;;53.63;24.00;;;;;;;11.17;90.24;99206.25;5049985;28;20263;-77
2024/03/31 00:27:20;;;;;;;48.50;23.63;;;;;;;11.17;90.20;99219.59;5050294;28;20298;-78
2024/03/31 00:29:47;;;;;;;48.83;23.20;;;;;;;11.16;90.36;99220.56;5051113;28;20307;-78
2024/03/31 00:32:12;;;;;;;43.83;23.17;;;;;;;11.17;90.17;99213.41;5055887;28;20288;-78
2024/03/31 00:34:39;;;;;;;50.33;24.40;;;;;;;11.16;90.25;99217.06;5055480;28;20776;-77
2024/03/31 00:37:06;;;;;;;51.90;23.63;;;;;;;11.16;90.45;99220.56;5055575;28;20208;-78
2024/03/31 00:39:33;;;;;;;56.90;25.10;;;;;;;11.17;90.52;99218.75;5055173;28;20247;-79
2024/03/31 00:41:58;;;;;;;51.80;24.43;;;;;;;11.17;90.34;99205.41;5055271;28;20310;-79
2024/03/31 00:44:25;;;;;;;48.10;24.27;;;;;;;11.16;90.43;99211.72;5054871;28;20320;-77
2024/03/31 00:46:52;;;;;;;48.07;22.73;;;;;;;11.13;90.44;99200.34;5054544;28;20235;-78
2024/03/31 00:49:20;;;;;;;37.97;21.23;;;;;;;11.12;90.58;99200.50;5057046;28;20205;-77
2024/03/31 00:51:46;;;;;;;44.40;20.40;;;;;;;11.11;90.77;99196.13;5055656;28;20214;-77
2024/03/31 00:54:14;;;;;;;38.80;19.70;;;;;;;11.10;90.76;99192.66;5056277;28;20232;-79
2024/03/31 00:56:40;;;;;;;40.17;20.43;;;;;;;11.08;90.54;99193.78;5056450;28;20232;-78
2024/03/31 00:59:06;;;;;;;39.37;19.17;;;;;;;11.08;90.86;99194.63;5056005;28;20670;-79
2024/03/31 01:01:32;;;;;;;36.50;18.13;;;;;;;11.05;90.97;99184.22;5056089;28;20316;-79
2024/03/31 01:04:01;;;;;;;39.43;18.77;;;;;;;11.04;90.93;99182.53;5055560;28;20321;-80
2024/03/31 01:06:30;;;;;;;34.10;18.53;;;;;;;11.02;91.03;99179.16;5054262;28;20588;-79
2024/03/31 01:08:56;;;;;;;40.23;18.53;;;;;;;10.99;91.13;99179.44;5051553;28;20232;-81
2024/03/31 01:11:26;;;;;;;40.93;19.77;;;;;;;10.99;91.22;99183.91;5049345;28;20231;-81
2024/03/31 01:13:54;;;;;;;36.77;18.80;;;;;;;10.97;91.57;99193.84;5053327;28;20280;-81
2024/03/31 01:16:20;;;;;;;34.13;17.73;;;;;;;10.93;91.68;99190.59;5046403;28;20230;-81
2024/03/31 01:18:46;;;;;;;38.83;19.63;;;;;;;10.88;91.71;99198.19;5047737;28;20230;-82
2024/03/31 01:21:12;;;;;;;37.73;21.10;;;;;;;10.84;91.89;99195.91;5047605;28;20296;-80
2024/03/31 01:23:54;;;;;;;37.77;20.57;;;;;;;10.76;91.92;99191.25;5052866;28;20204;-81
2024/03/31 01:26:19;;;;;;;37.87;20.63;;;;;;;10.70;92.59;99192.66;5055157;28;20274;-82
2024/03/31 01:28:46;;;;;;;43.50;20.13;;;;;;;10.67;92.81;99197.38;5053870;28;20229;-82
2024/03/31 01:31:12;;;;;;;37.10;22.17;;;;;;;10.63;93.36;99198.63;5051052;28;20282;-82
2024/03/31 01:33:38;;;;;;;46.50;22.60;;;;;;;10.57;93.41;99194.66;5047442;28;20297;-81
2024/03/31 01:36:05;;;;;;;44.60;21.23;;;;;;;10.55;94.20;99193.13;5049218;28;21167;-82
2024/03/31 01:38:31;;;;;;;45.03;22.37;;;;;;;10.53;94.63;99205.72;5053967;28;20254;-81
2024/03/31 01:40:58;;;;;;;43.37;22.10;;;;;;;10.51;94.95;99205.00;5049024;28;20287;-81
2024/03/31 01:43:25;;;;;;;45.23;22.17;;;;;;;10.48;95.35;99214.09;5054320;28;20198;-81
2024/03/31 01:45:51;;;;;;;46.07;21.67;;;;;;;10.47;95.66;99209.75;5062210;28;20257;-81
2024/03/31 01:48:18;;;;;;;41.60;21.43;;;;;;;10.44;95.69;99207.34;5054729;28;20228;-81
2024/03/31 01:50:44;;;;;;;41.47;21.10;;;;;;;10.40;96.09;99203.25;5053981;28;20286;-81
2024/03/31 01:53:10;;;;;;;42.47;22.77;;;;;;;10.34;95.80;99214.44;5055812;28;20211;-81
2024/03/31 01:55:36;;;;;;;48.00;22.20;;;;;;;10.23;96.43;99223.31;5060939;28;20249;-81
2024/03/31 01:58:04;;;;;;;37.13;20.43;;;;;;;10.18;97.08;99230.84;5054602;28;20704;-81
2024/03/31 02:00:30;;;;;;;38.67;21.97;;;;;;;10.17;97.64;99223.81;5057743;28;20293;-81
2024/03/31 02:02:57;;;;;;;49.57;21.73;;;;;;;10.16;97.95;99223.94;5055409;28;20314;-83
2024/03/31 02:05:22;;;;;;;37.60;21.43;;;;;;;10.14;98.25;99229.41;5045723;28;20265;-83
2024/03/31 02:07:50;;;;;;;46.90;21.27;;;;;;;10.13;98.48;99230.38;5058277;28;20232;-83
2024/03/31 02:10:16;;;;;;;40.43;21.30;;;;;;;10.14;98.69;99228.56;5050511;28;20203;-82
2024/03/31 02:12:42;;;;;;;37.57;21.97;;;;;;;10.12;98.90;99227.81;5049062;28;20285;-81
2024/03/31 02:15:09;;;;;;;41.40;22.73;;;;;;;10.13;99.05;99233.03;5052038;28;20323;-82
2024/03/31 02:17:36;;;;;;;42.43;21.43;;;;;;;10.12;99.45;99217.19;5054191;28;20233;-82
2024/03/31 02:20:02;;;;;;;40.47;21.37;;;;;;;10.10;99.47;99219.97;5050257;28;20249;-82
2024/03/31 02:22:28;;;;;;;44.33;23.87;;;;;;;10.10;99.57;99217.31;5047929;28;20317;-82
2024/03/31 02:24:54;;;;;;;35.80;19.93;;;;;;;10.09;99.89;99226.25;5048673;28;20269;-82
2024/03/31 02:27:21;;;;;;;33.57;20.07;;;;;;;10.09;99.93;99215.63;5045351;28;20236;-82
2024/03/31 02:29:47;;;;;;;29.30;17.90;;;;;;;10.08;100.00;99219.25;5048430;28;20243;-82
2024/03/31 02:32:15;;;;;;;33.67;18.70;;;;;;;10.06;100.00;99215.88;5052823;28;20546;-82
2024/03/31 02:34:40;;;;;;;31.90;18.10;;;;;;;10.07;100.00;99217.56;5053809;28;20635;-82
2024/03/31 02:37:07;;;;;;;33.87;17.23;;;;;;;10.06;100.00;99215.88;5054478;28;20237;-82
2024/03/31 02:39:33;;;;;;;27.30;16.93;;;;;;;10.05;100.00;99222.16;5048248;28;20289;-82
2024/03/31 02:42:00;;;;;;;27.80;17.97;;;;;;;10.03;100.00;99216.16;5045538;28;20674;-82
2024/03/31 02:44:25;;;;;;;32.47;18.03;;;;;;;10.00;100.00;99216.41;5053410;28;20225;-82
2024/03/31 02:46:52;;;;;;;26.83;17.53;;;;;;;9.96;100.00;99209.66;5054038;28;20206;-82
2024/03/31 02:49:19;;;;;;;30.20;17.67;;;;;;;9.95;100.00;99218.59;5053918;28;20746;-83
2024/03/31 02:51:46;;;;;;;32.23;18.77;;;;;;;9.92;100.00;99219.69;5046058;28;20206;-82
2024/03/31 02:54:11;;;;;;;24.90;18.30;;;;;;;9.93;100.00;99231.19;5047262;28;20254;-82
2024/03/31 02:56:38;;;;;;;28.97;19.20;;;;;;;9.91;100.00;99222.47;5053248;28;20230;-82
2024/03/31 02:59:03;;;;;;;29.23;17.13;;;;;;;9.91;100.00;99226.00;5049735;28;20285;-82
2024/03/31 03:01:30;;;;;;;37.30;18.90;;;;;;;9.91;100.00;99227.81;5046935;28;20313;-82
2024/03/31 03:03:55;;;;;;;41.03;19.70;;;;;;;9.91;100.00;99231.31;5052241;28;20258;-82
2024/03/31 03:06:23;;;;;;;35.93;19.03;;;;;;;9.91;100.00;99236.63;5052646;28;20208;-82
2024/03/31 03:08:49;;;;;;;33.00;19.30;;;;;;;9.91;100.00;99236.63;5049680;28;20637;-82
2024/03/31 03:11:16;;;;;;;33.97;20.10;;;;;;;9.90;100.00;99234.09;5057076;28;20229;-81
2024/03/31 03:13:43;;;;;;;28.70;18.87;;;;;;;9.89;100.00;99246.53;5050637;28;20711;-83
2024/03/31 03:16:10;;;;;;;34.87;18.63;;;;;;;9.88;100.00;99244.84;5049417;28;20257;-83
2024/03/31 03:18:36;;;;;;;32.87;20.07;;;;;;;9.87;100.00;99247.63;5048555;28;20238;-81
2024/03/31 03:21:02;;;;;;;32.87;19.03;;;;;;;9.84;100.00;99254.06;5051924;28;20239;-83
2024/03/31 03:23:31;;;;;;;33.90;18.43;;;;;;;9.82;100.00;99253.34;5050278;28;20279;-82
2024/03/31 03:25:59;;;;;;;29.63;18.23;;;;;;;9.82;100.00;99252.50;5045722;28;20261;-83
2024/03/31 03:28:24;;;;;;;36.30;20.07;;;;;;;9.79;100.00;99250.94;5047572;28;20293;-83
2024/03/31 03:30:51;;;;;;;37.20;20.83;;;;;;;9.78;100.00;99243.94;5047385;28;20289;-83
2024/03/31 03:33:17;;;;;;;35.87;19.80;;;;;;;9.77;100.00;99252.03;5050947;28;20206;-83
2024/03/31 03:35:44;;;;;;;38.47;20.37;;;;;;;9.73;100.00;99256.75;5051426;28;20271;-83
2024/03/31 03:38:10;;;;;;;38.57;19.77;;;;;;;9.71;100.00;99264.84;5051880;28;20300;-83
2024/03/31 03:40:38;;;;;;;36.33;20.03;;;;;;;9.72;100.00;99263.03;5052861;28;20285;-83
2024/03/31 03:43:05;;;;;;;37.90;20.63;;;;;;;9.72;100.00;99255.91;5055717;28;20285;-83
2024/03/31 03:45:31;;;;;;;36.67;20.50;;;;;;;9.71;100.00;99269.31;5059270;28;20253;-83
2024/03/31 03:47:57;;;;;;;33.90;19.67;;;;;;;9.71;100.00;99261.34;5047217;28;20725;-83
2024/03/31 03:50:24;;;;;;;29.47;19.43;;;;;;;9.69;100.00;99260.63;5053156;28;20237;-83
2024/03/31 03:52:49;;;;;;;33.13;19.53;;;;;;;9.68;100.00;99262.44;5046262;28;20194;-83
2024/03/31 03:55:16;;;;;;;39.40;20.30;;;;;;;9.70;100.00;99265.81;5052112;28;20228;-82
2024/03/31 03:57:43;;;;;;;30.57;19.57;;;;;;;9.69;100.00;99265.94;5051756;28;20736;-83
2024/03/31 04:00:11;;;;;;;36.97;19.90;;;;;;;9.69;100.00;99265.94;5041328;28;20233;-83
2024/03/31 04:02:37;;;;;;;38.27;20.80;;;;;;;9.67;100.00;99255.44;5047880;28;20225;-83
2024/03/31 04:05:03;;;;;;;30.97;20.47;;;;;;;9.68;100.00;99265.09;5047494;28;20289;-83
2024/03/31 04:07:29;;;;;;;36.40;20.97;;;;;;;9.68;100.00;99258.94;5044451;28;20657;-82
2024/03/31 04:09:55;;;;;;;34.77;20.53;;;;;;;9.67;100.00;99247.47;5044998;28;20268;-82
2024/03/31 04:12:21;;;;;;;25.83;19.07;;;;;;;9.67;100.00;99249.31;5050372;28;20288;-82
2024/03/31 04:14:49;;;;;;;37.60;21.20;;;;;;;9.65;100.00;99246.75;5059760;28;20686;-82
2024/03/31 04:17:15;;;;;;;36.00;20.27;;;;;;;9.62;100.00;99244.34;5041506;28;20259;-82
2024/03/31 04:19:41;;;;;;;34.73;20.73;;;;;;;9.61;100.00;99242.66;5055815;28;20246;-82
2024/03/31 04:22:07;;;;;;;34.63;21.23;;;;;;;9.61;100.00;99241.81;5052887;28;20658;-82
2024/03/31 04:24:33;;;;;;;34.07;20.83;;;;;;;9.59;100.00;99233.97;5045775;28;20230;-82
2024/03/31 04:26:59;;;;;;;30.43;21.10;;;;;;;9.59;100.00;99243.75;5063866;28;20691;-82
2024/03/31 04:29:26;;;;;;;37.90;21.60;;;;;;;9.60;100.00;99253.41;5044470;28;20297;-82
2024/03/31 04:31:54;;;;;;;31.67;20.43;;;;;;;9.62;100.00;99251.47;5049576;28;20650;-82
2024/03/31 04:34:21;;;;;;;35.43;20.57;;;;;;;9.62;100.00;99254.13;5050293;28;20644;-82
2024/03/31 04:36:49;;;;;;;39.20;22.13;;;;;;;9.61;100.00;99249.78;5053461;28;20626;-82
2024/03/31 04:39:16;;;;;;;36.53;23.57;;;;;;;9.62;100.00;99248.81;5045252;28;20241;-81
2024/03/31 04:41:41;;;;;;;29.50;20.27;;;;;;;9.60;100.00;99246.28;5045637;28;20217;-82
2024/03/31 04:44:08;;;;;;;30.87;20.83;;;;;;;9.60;100.00;99251.59;5045792;28;20722;-82
2024/03/31 04:46:34;;;;;;;34.70;21.27;;;;;;;9.60;100.00;99248.94;5050172;28;20301;-82
2024/03/31 04:49:02;;;;;;;33.47;20.97;;;;;;;9.60;100.00;99251.59;5043355;28;20238;-82
2024/03/31 04:51:27;;;;;;;37.97;22.70;;;;;;;9.62;100.00;99252.31;5049921;28;20545;-82
2024/03/31 04:53:54;;;;;;;34.57;22.17;;;;;;;9.61;100.00;99247.13;5050835;28;20212;-82
2024/03/31 04:56:20;;;;;;;30.73;21.23;;;;;;;9.59;100.00;99231.31;5053657;28;20206;-82
2024/03/31 04:58:47;;;;;;;34.57;21.00;;;;;;;9.59;100.00;99230.47;5051926;28;20228;-82
2024/03/31 05:01:12;;;;;;;37.83;23.37;;;;;;;9.59;100.00;99231.31;5051174;28;20740;-81
2024/03/31 05:03:39;;;;;;;33.57;22.47;;;;;;;9.58;100.00;99237.59;5048569;28;20300;-81
2024/03/31 05:06:06;;;;;;;35.23;21.03;;;;;;;9.59;100.00;99235.78;5049070;28;20296;-81
2024/03/31 05:08:33;;;;;;;33.90;22.57;;;;;;;9.57;100.00;99235.91;5046943;28;20199;-81
2024/03/31 05:10:59;;;;;;;39.17;22.37;;;;;;;9.58;100.00;99236.75;5058618;28;20237;-82
2024/03/31 05:13:27;;;;;;;29.10;21.93;;;;;;;9.57;100.00;99235.91;5055057;28;20572;-82
2024/03/31 05:15:59;;;;;;;34.73;22.07;;;;;;;9.57;100.00;99225.28;5048590;28;20213;-82
2024/03/31 05:18:26;;;;;;;32.23;21.53;;;;;;;9.56;100.00;99215.59;5052576;28;20212;-82
2024/03/31 05:20:56;;;;;;;34.43;22.07;;;;;;;9.55;100.00;99221.88;5043841;28;20297;-82
2024/03/31 05:23:24;;;;;;;33.20;20.87;;;;;;;9.54;100.00;99214.88;5054500;28;20225;-82
2024/03/31 05:25:51;;;;;;;33.73;22.10;;;;;;;9.54;100.00;99198.94;5047226;28;20750;-82
2024/03/31 05:28:17;;;;;;;34.37;22.63;;;;;;;9.52;100.00;99190.25;5052955;28;20205;-82
2024/03/31 05:30:43;;;;;;;31.33;21.60;;;;;;;9.52;100.00;99195.56;5048146;28;20296;-82
2024/03/31 05:33:10;;;;;;;31.93;21.93;;;;;;;9.52;100.00;99184.94;5056384;28;20773;-82
2024/03/31 05:35:35;;;;;;;37.17;23.67;;;;;;;9.50;100.00;99200.16;5053956;28;20229;-81
2024/03/31 05:38:02;;;;;;;32.50;21.97;;;;;;;9.49;100.00;99201.16;5051136;28;20263;-82
2024/03/31 05:40:29;;;;;;;36.97;23.77;;;;;;;9.49;100.00;99208.28;5055661;28;20746;-82
2024/03/31 05:42:55;;;;;;;33.93;23.37;;;;;;;9.48;100.00;99215.41;5048033;28;20229;-81
2024/03/31 05:45:21;;;;;;;39.03;25.03;;;;;;;9.48;100.00;99214.56;5060491;28;20260;-82
2024/03/31 05:47:48;;;;;;;41.13;26.27;;;;;;;9.46;100.00;99217.34;5050294;28;20257;-82
2024/03/31 05:50:14;;;;;;;36.57;24.67;;;;;;;9.46;100.00;99224.47;5053975;28;20230;-82
2024/03/31 05:52:40;;;;;;;41.37;26.63;;;;;;;9.46;100.00;99229.78;5062513;28;20870;-82
2024/03/31 05:55:06;;;;;;;41.67;28.37;;;;;;;9.43;100.00;99228.22;5059563;28;20336;-82
2024/03/31 05:57:34;;;;;;;40.53;27.13;;;;;;;9.44;100.00;99231.72;5055115;28;20289;-82
2024/03/31 06:00:00;;;;;;;41.37;27.87;;;;;;;9.43;100.00;99238.00;5053374;28;20253;-81
2024/03/31 06:02:26;;;;;;;41.13;29.67;;;;;;;9.45;100.00;99236.06;5048164;28;20258;-82
2024/03/31 06:04:53;;;;;;;38.07;28.93;;;;;;;9.46;100.00;99240.41;5053125;28;20272;-81
2024/03/31 06:07:20;;;;;;;42.27;29.37;;;;;;;9.46;100.00;99243.06;5048751;28;20290;-82
2024/03/31 06:09:45;;;;;;;43.23;27.50;;;;;;;9.46;100.00;99253.69;5049523;28;20293;-82
2024/03/31 06:12:12;;;;;;;39.83;27.80;;;;;;;9.46;100.00;99241.25;5052513;28;20286;-82
2024/03/31 06:14:39;;;;;;;36.10;26.07;;;;;;;9.47;100.00;99250.91;5049630;28;20324;-82
2024/03/31 06:17:06;;;;;;;38.90;27.23;;;;;;;9.48;100.00;99252.63;5047850;28;20288;-82
2024/03/31 06:19:32;;;;;;;38.60;26.93;;;;;;;9.49;100.00;99253.47;5055205;28;20241;-82
2024/03/31 06:21:59;;;;;;;43.40;27.97;;;;;;;9.50;100.00;99249.81;5052507;28;20271;-82
2024/03/31 06:24:25;;;;;;;38.87;27.43;;;;;;;9.51;100.00;99255.00;5059457;28;20255;-82
2024/03/31 06:26:51;;;;;;;39.37;27.27;;;;;;;9.52;100.00;99250.53;5047150;28;20225;-81
2024/03/31 06:29:17;;;;;;;38.73;26.63;;;;;;;9.51;100.00;99244.38;5052971;28;20309;-82
2024/03/31 06:31:45;;;;;;;42.00;28.53;;;;;;;9.53;100.00;99246.91;5053190;28;20677;-82
2024/03/31 06:34:11;;;;;;;41.10;28.40;;;;;;;9.54;100.00;99256.56;5052640;28;20313;-82
2024/03/31 06:36:37;;;;;;;43.93;30.07;;;;;;;9.53;100.00;99247.75;5047139;28;20234;-82
2024/03/31 06:39:03;;;;;;;39.90;28.83;;;;;;;9.54;100.00;99254.75;5057516;28;20290;-81
2024/03/31 06:41:29;;;;;;;39.47;28.87;;;;;;;9.55;100.00;99247.63;5056969;28;20292;-82
2024/03/31 06:43:55;;;;;;;41.03;29.73;;;;;;;9.55;100.00;99243.16;5048730;28;20312;-82
2024/03/31 06:46:22;;;;;;;41.87;30.83;;;;;;;9.55;100.00;99243.16;5046506;28;20293;-81
2024/03/31 06:48:49;;;;;;;40.53;29.60;;;;;;;9.57;100.00;99249.19;5050037;28;20240;-82
2024/03/31 06:51:15;;;;;;;43.57;30.53;;;;;;;9.56;100.00;99250.16;5048345;28;20241;-82
2024/03/31 06:53:41;;;;;;;40.23;29.40;;;;;;;9.58;100.00;99253.53;5053550;28;20289;-82
2024/03/31 06:56:08;;;;;;;41.70;30.43;;;;;;;9.59;100.00;99263.19;5049888;28;20741;-82
2024/03/31 06:58:33;;;;;;;46.20;32.10;;;;;;;9.59;100.00;99268.53;5052445;28;20288;-82
2024/03/31 07:01:01;;;;;;;43.83;29.87;;;;;;;9.58;100.00;99271.28;5052317;28;20212;-82
2024/03/31 07:03:27;;;;;;;45.17;31.57;;;;;;;9.58;100.00;99273.97;5044380;28;20312;-82
2024/03/31 07:05:55;;;;;;;42.50;32.10;;;;;;;9.58;100.00;99273.97;5053623;28;20317;-82
2024/03/31 07:08:20;;;;;;;49.03;32.87;;;;;;;9.60;100.00;99277.34;5053489;28;20772;-82
2024/03/31 07:10:47;;;;;;;49.20;33.33;;;;;;;9.60;100.00;99280.00;5047592;28;20240;-82
2024/03/31 07:13:12;;;;;;;47.13;33.10;;;;;;;9.59;100.00;99270.34;5053679;28;20662;-82
2024/03/31 07:15:39;;;;;;;51.30;33.67;;;;;;;9.60;100.00;99275.53;5052466;28;20232;-82
2024/03/31 07:18:06;;;;;;;49.63;33.37;;;;;;;9.61;100.00;99292.31;5052987;28;20297;-81
2024/03/31 07:20:33;;;;;;;48.77;35.97;;;;;;;9.62;100.00;99292.19;5039680;28;20201;-82
2024/03/31 07:23:00;;;;;;;54.70;36.13;;;;;;;9.63;100.00;99287.72;5044653;28;20260;-82
2024/03/31 07:25:27;;;;;;;51.87;37.93;;;;;;;9.66;100.00;99287.47;5039403;28;20312;-82
2024/03/31 07:27:52;;;;;;;54.23;38.07;;;;;;;9.65;100.00;99276.00;5056148;28;20239;-81
2024/03/31 07:30:19;;;;;;;53.57;38.80;;;;;;;9.66;100.00;99269.72;5046489;28;20499;-81
2024/03/31 07:32:45;;;;;;;52.97;40.03;;;;;;;9.66;100.00;99266.22;5052399;28;20792;-82
2024/03/31 07:35:11;;;;;;;55.73;39.80;;;;;;;9.67;100.00;99265.25;5043263;28;20256;-81
2024/03/31 07:37:37;;;;;;;57.60;40.20;;;;;;;9.67;100.00;99274.03;5043721;28;20293;-81
2024/03/31 07:40:06;;;;;;;57.73;41.53;;;;;;;9.69;100.00;99277.41;5055058;28;20289;-82
2024/03/31 07:42:32;;;;;;;57.67;40.70;;;;;;;9.70;100.00;99284.44;5043561;28;20225;-81
2024/03/31 07:44:59;;;;;;;55.20;40.23;;;;;;;9.71;100.00;99296.75;5046404;28;20230;-82
2024/03/31 07:47:24;;;;;;;54.37;39.87;;;;;;;9.72;100.00;99305.56;5044929;28;20209;-81
2024/03/31 07:49:51;;;;;;;57.47;41.67;;;;;;;9.72;100.00;99302.91;5046599;28;20833;-81
2024/03/31 07:52:16;;;;;;;63.73;41.87;;;;;;;9.75;100.00;99313.31;5048446;28;20314;-82
2024/03/31 07:54:44;;;;;;;56.17;39.67;;;;;;;9.75;100.00;99310.66;5051102;28;20697;-83
2024/03/31 07:57:11;;;;;;;57.83;40.67;;;;;;;9.74;100.00;99320.44;5052251;28;20213;-81
2024/03/31 07:59:37;;;;;;;52.00;39.27;;;;;;;9.75;100.00;99324.78;5059790;28;20270;-82
2024/03/31 08:02:03;;;;;;;56.37;38.93;;;;;;;9.75;100.00;99323.94;5056888;28;20296;-82
2024/03/31 08:04:30;;;;;;;55.50;39.33;;;;;;;9.78;100.00;99328.16;5043194;28;20289;-82
2024/03/31 08:06:56;;;;;;;55.73;39.70;;;;;;;9.78;100.00;99331.69;5048768;28;20208;-82
2024/03/31 08:09:22;;;;;;;58.17;40.33;;;;;;;9.78;100.00;99323.69;5046265;28;20201;-82
2024/03/31 08:11:48;;;;;;;53.33;39.03;;;;;;;9.78;100.00;99322.84;5044735;28;20298;-82
2024/03/31 08:14:16;;;;;;;53.97;40.53;;;;;;;9.81;100.00;99319.94;5047764;28;20304;-81
2024/03/31 08:16:41;;;;;;;55.70;39.70;;;;;;;9.83;100.00;99326.84;5049348;28;20288;-82
2024/03/31 08:19:08;;;;;;;55.57;38.87;;;;;;;9.84;100.00;99314.38;5044205;28;20311;-81
2024/03/31 08:21:34;;;;;;;52.87;38.90;;;;;;;9.87;100.00;99316.78;5048373;28;20292;-81
2024/03/31 08:24:00;;;;;;;53.77;37.80;;;;;;;9.89;100.00;99321.00;5046590;28;20234;-81
2024/03/31 08:26:26;;;;;;;51.57;38.23;;;;;;;9.92;100.00;99319.91;5042861;28;20285;-81
2024/03/31 08:28:53;;;;;;;48.43;36.50;;;;;;;9.93;100.00;99318.94;5046660;28;20262;-81
2024/03/31 08:31:20;;;;;;;53.70;35.57;;;;;;;9.96;100.00;99316.03;5044493;28;20442;-81
2024/03/31 08:33:46;;;;;;;50.73;36.77;;;;;;;9.99;100.00;99321.97;5046085;28;20204;-81
2024/03/31 08:36:12;;;;;;;51.30;38.47;;;;;;;10.06;100.00;99319.63;5047210;28;20224;-81
2024/03/31 08:38:39;;;;;;;53.33;38.37;;;;;;;10.12;100.00;99321.78;5051891;28;20205;-81
2024/03/31 08:41:07;;;;;;;51.93;39.27;;;;;;;10.20;100.00;99323.84;5048586;28;20622;-81
2024/03/31 08:43:37;;;;;;;56.17;39.50;;;;;;;10.28;100.00;99324.91;5049271;28;20309;-81
2024/03/31 08:46:05;;;;;;;52.63;39.83;;;;;;;10.37;100.00;99320.63;5049237;28;20683;-81
2024/03/31 08:48:37;;;;;;;58.03;41.93;;;;;;;10.45;100.00;99323.47;5052113;28;20202;-81
2024/03/31 08:51:04;;;;;;;63.83;45.63;;;;;;;10.53;100.00;99323.69;5043138;28;20234;-82
2024/03/31 08:53:31;;;;;;;62.87;43.70;;;;;;;10.58;100.00;99316.16;5052984;28;20204;-82
2024/03/31 08:55:57;;;;;;;60.63;44.00;;;;;;;10.62;100.00;99314.06;5051863;28;20316;-81
2024/03/31 08:58:24;;;;;;;58.63;43.40;;;;;;;10.62;100.00;99316.75;5051315;28;20274;-81
2024/03/31 09:00:50;;;;;;;61.57;44.50;;;;;;;10.64;100.00;99312.13;5042053;28;20299;-82
2024/03/31 09:03:17;;;;;;;61.90;45.37;;;;;;;10.66;100.00;99305.72;5055607;28;20229;-82
2024/03/31 09:05:45;;;;;;;64.13;46.10;;;;;;;10.70;100.00;99311.63;5061248;28;20224;-81
2024/03/31 09:08:11;;;;;;;65.93;44.03;;;;;;;10.72;100.00;99315.00;5058082;28;20255;-81
2024/03/31 09:10:38;;;;;;;64.03;43.40;;;;;;;10.73;100.00;99306.03;5054511;28;20206;-81
2024/03/31 09:13:06;;;;;;;59.17;43.03;;;;;;;10.74;100.00;99310.38;5045306;28;20667;-81
2024/03/31 09:15:33;;;;;;;58.07;42.20;;;;;;;10.76;100.00;99308.41;5053123;28;20221;-81
2024/03/31 09:17:59;;;;;;;63.83;43.00;;;;;;;10.80;100.00;99301.84;5052797;28;20215;-82
2024/03/31 09:20:25;;;;;;;62.83;45.00;;;;;;;10.83;100.00;99301.59;5053689;28;20288;-82
2024/03/31 09:22:55;;;;;;;63.83;44.90;;;;;;;10.87;100.00;99296.88;5050958;28;20235;-82
2024/03/31 09:25:21;;;;;;;60.43;42.83;;;;;;;10.89;100.00;99294.91;5067632;28;20216;-81
2024/03/31 09:27:48;;;;;;;63.57;42.83;;;;;;;10.92;100.00;99297.31;5054503;28;20242;-81
2024/03/31 09:30:14;;;;;;;58.30;42.50;;;;;;;10.93;100.00;99298.97;5055036;28;20246;-81
2024/03/31 09:32:40;;;;;;;60.17;43.93;;;;;;;10.95;100.00;99305.88;5046857;28;20280;-82
2024/03/31 09:35:06;;;;;;;62.90;43.03;;;;;;;10.96;100.00;99304.88;5049581;28;20306;-82
2024/03/31 09:37:36;;;;;;;60.57;42.23;;;;;;;10.98;100.00;99300.28;5054752;28;20622;-82
2024/03/31 09:40:05;;;;;;;60.63;42.90;;;;;;;11.00;100.00;99300.16;5047723;28;20297;-82
2024/03/31 09:42:31;;;;;;;60.30;41.97;;;;;;;11.01;100.00;99300.03;5060907;28;20637;-81
2024/03/31 09:45:00;;;;;;;58.60;42.73;;;;;;;10.99;100.00;99295.78;5055435;28;20823;-81
2024/03/31 09:47:29;;;;;;;57.67;42.47;;;;;;;10.99;100.00;99296.63;5054762;28;20217;-82
2024/03/31 09:50:02;;;;;;;60.97;43.17;;;;;;;11.00;100.00;99293.00;5052013;28;20691;-81
2024/03/31 09:52:34;;;;;;;62.50;43.43;;;;;;;11.02;100.00;99282.22;5049981;28;20183;-81
2024/03/31 09:55:07;;;;;;;61.47;43.10;;;;;;;11.06;100.00;99275.66;5056891;28;20396;-81
2024/03/31 09:57:41;;;;;;;63.20;44.73;;;;;;;11.08;100.00;99273.69;5063822;28;20562;-81
2024/03/31 10:00:09;;;;;;;58.17;43.73;;;;;;;11.09;100.00;99267.41;5057573;28;20299;-81
2024/03/31 10:02:38;;;;;;;56.97;42.87;;;;;;;11.10;100.00;99261.09;5057250;28;20246;-81
2024/03/31 10:05:08;;;;;;;62.57;45.53;;;;;;;11.11;100.00;99263.59;5043301;28;20255;-81
2024/03/31 10:07:36;;;;;;;63.20;44.33;;;;;;;11.15;100.00;99261.50;5042745;28;20283;-81
2024/03/31 10:10:03;;;;;;;64.33;45.50;;;;;;;11.24;100.00;99257.22;5054457;28;20262;-81
2024/03/31 10:12:32;;;;;;;65.73;46.37;;;;;;;11.34;100.00;99263.41;5057629;28;20777;-82
2024/03/31 10:14:58;;;;;;;64.63;47.57;;;;;;;11.44;100.00;99262.47;5059652;28;20258;-82
2024/03/31 10:17:26;;;;;;;68.83;47.93;;;;;;;11.59;100.00;99252.25;5041142;28;20208;-81
2024/03/31 10:19:54;;;;;;;65.03;47.93;;;;;;;11.74;100.00;99252.69;5051022;28;20216;-81
2024/03/31 10:22:21;;;;;;;65.20;46.83;;;;;;;11.77;100.00;99239.97;5054233;28;20664;-81
2024/03/31 10:24:49;;;;;;;62.57;47.60;;;;;;;11.83;100.00;99235.88;5061172;28;20261;-82
2024/03/31 10:27:16;;;;;;;64.73;46.80;;;;;;;11.95;100.00;99225.91;5058466;28;20205;-82
2024/03/31 10:29:44;;;;;;;66.60;47.30;;;;;;;12.08;100.00;99216.66;5046483;28;20293;-81
2024/03/31 10:32:11;;;;;;;61.30;46.97;;;;;;;12.20;100.00;99214.66;5052359;28;20217;-83
2024/03/31 10:34:38;;;;;;;59.50;44.60;;;;;;;12.33;100.00;99217.06;5052835;28;20214;-83
2024/03/31 10:37:05;;;;;;;62.37;45.23;;;;;;;12.45;100.00;99208.72;5047917;28;20266;-81
2024/03/31 10:39:31;;;;;;;61.13;45.33;;;;;;;12.55;100.00;99205.16;5047919;28;20290;-82
2024/03/31 10:41:58;;;;;;;64.63;47.43;;;;;;;12.57;100.00;99208.53;5047968;28;20308;-83
2024/03/31 10:44:25;;;;;;;60.20;44.93;;;;;;;12.65;100.00;99198.00;5042999;28;20834;-83
2024/03/31 10:46:53;;;;;;;65.90;46.67;;;;;;;12.73;100.00;99198.94;5051643;28;20205;-83
2024/03/31 10:49:19;;;;;;;62.17;46.93;;;;;;;12.84;100.00;99198.75;5054430;28;20292;-83
2024/03/31 10:51:45;;;;;;;68.50;48.10;;;;;;;12.96;99.95;99199.41;5055824;28;21195;-82
2024/03/31 10:54:33;;;;;;;61.87;44.33;;;;;;;13.07;98.92;99199.25;5052083;28;20312;-82
2024/03/31 10:57:01;;;;;;;66.37;47.13;;;;;;;13.17;98.13;99204.56;5045941;28;20221;-81
2024/03/31 10:59:28;;;;;;;57.83;41.80;;;;;;;13.28;97.96;99196.31;5051851;28;20201;-81
2024/03/31 11:01:58;;;;;;;55.27;42.33;;;;;;;13.42;98.16;99203.84;5046917;28;20202;-81
2024/03/31 11:04:24;;;;;;;46.30;34.80;;;;;;;13.55;96.11;99201.66;5048465;28;20880;-83
2024/03/31 11:06:52;;;;;;;38.60;31.67;;;;;;;13.62;91.33;99196.50;5044981;28;20261;-81
2024/03/31 11:09:18;;;;;;;50.57;37.80;;;;;;;13.71;91.08;99197.47;5044675;28;20244;-83
2024/03/31 11:11:45;;;;;;;27.43;20.83;;;;;;;13.78;85.42;99201.22;5050001;28;21247;-83